Terminal Aerodrome Forecast
Issued by NWS San Angelo, TX

Home | Current Version | Previous Version | Text Only | Print | Product List | Glossary On
Versions: 1 2 3 4 5 6 7 8 9 10 11 12 13 14 15 16 17 18 19 20 21 22 23 24 25 26 27 28 29 30 31 32 33 34 35
634
FTUS44 KSJT 170535 CCA
TAFSJT
TAF COR
KSJT 170535Z 1706/1806 VRB03KT P6SM SCT060 BKN250
     FM170800 03008KT P6SM SCT060 OVC250
     FM171800 04010KT P6SM -RA SCT025 OVC040
      TEMPO 1719/1721 BKN018
     FM172100 04009KT 4SM -RA BR OVC008 PROB30 1721/1724 2SM TSRA
      BKN004CB
     FM180000 05006KT 3SM -RA BR OVC004=

USA.gov is the U.S. government's official web portal to all federal, state and local government web resources and services.